• Join FlightAware (Why Join?)
  • Login
  • US Flag 
09:14PM EDT


 

Airport Tracker/Info


-or-


 

Live Flight TrackerFlight Track Log ✈ VH-YJJ ✈ 14-May-2013 ✈ YPLC / PLO - YPAD / ADL

Flight Track Log - Related Links

Times and Time Zones

All times are in EDT time to prevent confusion due to time zone crossing. See the VH-YJJ flight status page for this flight to view local times or setup timezone preferences in your user account.

Time Position Orientation Groundspeed Altitude Reporting Facility
EDT Latitude Longitude Course Direction KTS MPH feet Rate Location/Type
04:31AM -34.6130 135.9808 93° East 7,000  Level Aus ATC (Calculated)
04:32AM -34.6215 136.0883 282° West 7,000 -780 Level Aus ATC (Calculated)
04:34AM -34.6265 136.1518 95° East  Level FlightAware Approximate
04:34AM -34.6157 136.0558 95° East 167 192 5,200  Level Aus ATC (RADAR)
04:34AM -34.6148 136.0761 87° East 144 166 5,500 900 Climbing Aus ATC (RADAR)
04:35AM -34.6161 136.1042 93° East 143 165 6,100 960 Climbing Aus ATC (RADAR)
04:36AM -34.6181 136.1399 94° East 141 162 6,800 720 Climbing Aus ATC (RADAR)
04:36AM -34.6192 136.1664 93° East 138 159 7,100 120 Climbing Aus ATC (RADAR)
04:37AM -34.6222 136.2186 94° East 175 201 7,000 -120 Descending Aus ATC (RADAR)
04:37AM -34.6235 136.2338 96° East 180 207 7,000  Level Aus ATC (RADAR)
04:38AM -34.6268 136.2703 96° East 187 215 7,000  Level Aus ATC (RADAR)
04:39AM -34.6342 136.3428 97° East 188 216 7,000  Level Aus ATC (RADAR)
04:39AM -34.6341 136.3694 90° East 188 216 7,000  Level Aus ATC (RADAR)
04:40AM -34.6390 136.4063 99° East 190 219 7,000  Level Aus ATC (RADAR)
04:41AM -34.6423 136.4538 95° East 188 216 7,000  Level Aus ATC (RADAR)
04:41AM -34.6485 136.4898 102° East 188 216 7,000  Level Aus ATC (RADAR)
04:42AM -34.6520 136.5377 95° East 190 219 7,000  Level Aus ATC (RADAR)
04:43AM -34.6556 136.5640 99° East 190 219 7,000  Level Aus ATC (RADAR)
04:43AM -34.6596 136.6008 98° East 189 217 7,000  Level Aus ATC (RADAR)
04:44AM -34.6619 136.6658 93° East 196 226 7,000  Level Aus ATC (RADAR)
04:45AM -34.6618 136.6936 90° East 199 229 7,000  Level Aus ATC (RADAR)
04:45AM -34.6747 136.7286 114° Southeast 192 221 7,000  Level Aus ATC (RADAR)
04:46AM -34.6751 136.7825 91° East 190 219 7,000  Level Aus ATC (RADAR)
04:47AM -34.6772 136.8195 94° East 189 217 7,000  Level Aus ATC (RADAR)
04:47AM -34.6799 136.8722 94° East 188 216 7,000  Level Aus ATC (RADAR)
04:48AM -34.6826 136.8985 97° East 189 217 7,000  Level Aus ATC (RADAR)
04:49AM -34.6865 136.9516 95° East 192 221 7,000  Level Aus ATC (RADAR)
04:49AM -34.6895 136.9834 96° East 191 220 7,000  Level Aus ATC (RADAR)
04:49AM -34.6924 137.0098 98° East 190 219 7,000  Level Aus ATC (RADAR)
04:50AM -34.6958 137.0470 96° East 190 219 7,000  Level Aus ATC (RADAR)
04:51AM -34.6970 137.0957 92° East 193 222 7,000  Level Aus ATC (RADAR)
04:51AM -34.6998 137.1334 95° East 192 221 7,000  Level Aus ATC (RADAR)
04:52AM -34.7008 137.1823 91° East 195 224 7,000  Level Aus ATC (RADAR)
04:53AM -34.7049 137.2088 101° East 193 222 7,000  Level Aus ATC (RADAR)
04:53AM -34.7073 137.2523 94° East 193 222 7,000  Level Aus ATC (RADAR)
04:54AM -34.7112 137.3120 95° East 194 223 7,000  Level Aus ATC (RADAR)
04:55AM -34.7119 137.3389 92° East 192 221 7,000  Level Aus ATC (RADAR)
04:55AM -34.7157 137.3811 96° East 189 217 7,000  Level Aus ATC (RADAR)
04:56AM -34.7171 137.4193 93° East 193 222 7,000  Level Aus ATC (RADAR)
04:56AM -34.7204 137.4567 96° East 193 222 7,000  Level Aus ATC (RADAR)
04:57AM -34.7224 137.5112 92° East 194 223 7,000  Level Aus ATC (RADAR)
04:58AM -34.7238 137.5382 94° East 192 221 7,000  Level Aus ATC (RADAR)
04:58AM -34.7254 137.5763 93° East 193 222 7,000  Level Aus ATC (RADAR)
04:59AM -34.7297 137.6410 95° East 193 222 7,000  Level Aus ATC (RADAR)
05:00AM -34.7326 137.6679 98° East 193 222 7,000  Level Aus ATC (RADAR)
05:00AM -34.7415 137.7035 107° East 190 219 7,000  Level Aus ATC (RADAR)
05:01AM -34.7504 137.7503 103° East 190 219 7,000  Level Aus ATC (RADAR)
05:02AM -34.7589 137.7859 106° East 188 216 7,000  Level Aus ATC (RADAR)
05:02AM -34.7661 137.8219 104° East 188 216 7,000  Level Aus ATC (RADAR)
05:03AM -34.7747 137.8577 106° East 190 219 7,000 -180 Level Aus ATC (RADAR)
05:03AM -34.7835 137.8946 106° East 195 224 6,800 -480 Descending Aus ATC (RADAR)
05:04AM -34.8012 137.9644 107° East 200 230 6,200 -600 Descending Aus ATC (RADAR)
05:05AM -34.8087 137.9913 109° East 202 232 5,900 -540 Descending Aus ATC (RADAR)
05:05AM -34.8190 138.0270 109° East 191 220 5,700 -480 Descending Aus ATC (RADAR)
05:06AM -34.8322 138.0721 110° East 189 217 5,300 -480 Descending Aus ATC (RADAR)
05:07AM -34.8438 138.1118 110° East 186 214 5,100 -420 Descending Aus ATC (RADAR)
05:07AM -34.8510 138.1371 109° East 189 217 4,900 -540 Descending Aus ATC (RADAR)
05:08AM -34.8602 138.1727 108° East 189 217 4,600 -480 Descending Aus ATC (RADAR)
05:08AM -34.8696 138.2082 108° East 189 217 4,400 -480 Descending Aus ATC (RADAR)
05:09AM -34.8848 138.2630 109° East 184 212 3,900 -600 Descending Aus ATC (RADAR)
05:10AM -34.8913 138.2882 107° East 186 214 3,600 -540 Descending Aus ATC (RADAR)
05:10AM -34.9008 138.3228 108° East 184 212 3,400 -480 Descending Aus ATC (RADAR)
05:11AM -34.9111 138.3665 106° East 178 205 3,000 -600 Descending Aus ATC (RADAR)
05:12AM -34.9112 138.4016 90° East 185 213 2,600 -600 Descending Aus ATC (RADAR)
05:12AM -34.8909 138.4472 62° Northeast 184 212 2,200 -480 Descending Aus ATC (RADAR)
05:13AM -34.8812 138.4697 62° Northeast 184 212 2,000 -420 Descending Aus ATC (RADAR)
05:13AM -34.8681 138.5009 63° Northeast 181 208 1,800 -240 Descending Aus ATC (RADAR)
05:15AM -34.8698 138.5630 92° East 171 197 1,600 -120 Descending Aus ATC (RADAR)
05:15AM -34.8771 138.5729 132° Southeast 160 184 1,700  Climbing Aus ATC (RADAR)
05:15AM -34.8956 138.5886 145° Southeast 140 161 1,600 -780 Descending Aus ATC (RADAR)
05:16AM -34.9195 138.5753 205° Southwest 126 145 700 -840 Descending Aus ATC (RADAR)
05:17AM -34.9307 138.5576 232° Southwest 97 112 500 -480 Descending Aus ATC (RADAR)
05:18AM -34.9420 138.5412 230° Southwest 82 94 100 -540 Descending Aus ATC (RADAR)